Antelope, MT (59211)

7:47 PM MST on January 27, 2015 (GMT -0700)
MesoWest KATQ PLENTYWOOD MT US GGWWFO | Change Station
CLOSE
Current Station
Personal Weather Station
Location: Raymond, MT
Elevation: 2034 ft
Nearby Weather Stations

Elev 2034 ft 48.77 °N, 104.55 °W | Updated 44 minutes ago

Clear
Clear
32 °F
Feels Like 32 °F
N
0
Wind Variable Wind from North
Gusts 0.0 mph

Today
High -- | Low -- °F
--% Chance of Precip.
Yesterday
High -- | Low -- °F
Precip. -- in
7:33 AM 4:47 PM
First Quarter, 60% visible
Pressure 29.85 in
Visibility 10.0 miles
Clouds Clear
Windchill 32 °F
Dew Point 32 °F
Humidity 100%
Rainfall -999.00 in
Snow Depth Not available.
UV 0 out of 12
Pollen .10 out of 12
Air Quality Not available.
Flu Activity Not available.
METAR KISN 280152Z AUTO 00000KT 10SM CLR M01/M02 A2978 RMK AO2 SLP108 T10061017

More Conditions Fewer Conditions

Pressure 29.85 in
Visibility 10.0 miles
Clouds Clear
Windchill 32 °F
Dew Point 32 °F
Humidity 100%
Rainfall -999.00 in
Snow Depth Not available.
UV 0 out of 12
Pollen .10 out of 12
Air Quality Not available.
Flu Activity Not available.
METAR KISN 280152Z AUTO 00000KT 10SM CLR M01/M02 A2978 RMK AO2 SLP108 T10061017

More Conditions Fewer Conditions

10-Day Weather Forecast

Almanac

Astronomy

Jan. 27, 2015 Rise Set
Actual Time
Civil Twilight
Nautical Twilight
Astronomical Twilight
Moon
Length of Visible Light
Length of Day
Tomorrow will be .
, % of the Moon is Illuminated

Today's Extremes

State Highs State Lows

Community

WunderPhotos

Upload Photos

1,791,060 photos uploaded!

WunderBlogs® & News

Nearby

Air Quality

  Air Quality AQ Index Pollutant
Not available.

Snow Depth

Station Depth Elevation

Earthquake Activity

City Distance Mag. Time & Date
Minimum magnitude displayed is 2.5.

Coastal Water Temperatures

Place Temperature

Nearby Weather Stations